Time;durP1;ratioP1;P1;durP2;ratioP2;P2;SDS_P1;SDS_P2;PMS_P1;PMS_P2;Temp;Humidity;BMP_temperature;BMP_pressure;BME280_temperature;BME280_humidity;BME280_pressure;Samples;Min_cycle;Max_cycle;Signal;HPM_P1;HPM_P2
2023/11/06 00:02:30;;;;;;;28.35;26.25;;;;;;;13.07;100.00;100021.88;5069671;28;20052;-73
2023/11/06 00:04:57;;;;;;;24.38;22.58;;;;;;;13.20;100.00;100042.94;5066451;28;20055;-72
2023/11/06 00:07:24;;;;;;;26.95;24.75;;;;;;;13.17;100.00;100058.59;5070348;28;20060;-75
2023/11/06 00:09:51;;;;;;;27.70;25.50;;;;;;;13.23;100.00;100047.78;5063934;28;20060;-76
2023/11/06 00:12:19;;;;;;;28.40;26.20;;;;;;;13.12;100.00;100039.84;5071296;28;20127;-75
2023/11/06 00:14:47;;;;;;;30.23;27.92;;;;;;;13.09;100.00;100043.78;5067021;28;20529;-74
2023/11/06 00:17:16;;;;;;;28.90;26.70;;;;;;;12.99;100.00;100047.06;5067969;28;20044;-74
2023/11/06 00:19:43;;;;;;;30.05;27.85;;;;;;;13.03;100.00;100052.75;5068448;28;20049;-73
2023/11/06 00:22:10;;;;;;;26.73;24.63;;;;;;;13.04;100.00;100063.19;5073391;28;20044;-75
2023/11/06 00:24:37;;;;;;;27.65;25.55;;;;;;;13.05;100.00;100077.31;5064141;28;20699;-76
2023/11/06 00:27:05;;;;;;;29.00;26.90;;;;;;;13.46;100.00;100089.59;5063100;28;20437;-74
2023/11/06 00:29:33;;;;;;;28.27;26.17;;;;;;;13.08;100.00;100090.16;5069892;28;20493;-73
2023/11/06 00:32:03;;;;;;;28.20;26.10;;;;;;;13.31;100.00;100093.81;5069654;28;20563;-75
2023/11/06 00:34:39;;;;;;;27.40;25.33;;;;;;;13.07;100.00;100099.19;5070477;28;20056;-74
2023/11/06 00:37:06;;;;;;;28.00;25.90;;;;;;;12.96;100.00;100108.88;5068550;28;20048;-76
2023/11/06 00:39:37;;;;;;;28.23;26.13;;;;;;;13.00;100.00;100120.66;5064932;28;20056;-76
2023/11/06 00:42:05;;;;;;;30.83;28.52;;;;;;;12.95;100.00;100114.41;5069662;28;20484;-76
2023/11/06 00:44:33;;;;;;;29.52;27.15;;;;;;;13.19;100.00;100116.00;5068673;28;20060;-75
2023/11/06 00:47:01;;;;;;;28.88;26.77;;;;;;;13.21;100.00;100118.41;5066252;28;20049;-76
2023/11/06 00:49:28;;;;;;;30.13;27.92;;;;;;;13.17;100.00;100133.25;5056001;28;20511;-75
2023/11/06 00:51:55;;;;;;;26.42;24.33;;;;;;;13.17;100.00;100125.28;5060430;28;20094;-75
2023/11/06 00:54:22;;;;;;;24.80;22.92;;;;;;;13.14;100.00;100137.22;5069545;28;20045;-75
2023/11/06 00:56:49;;;;;;;27.35;25.45;;;;;;;13.25;100.00;100135.56;5064327;28;20498;-76
2023/11/06 00:59:16;;;;;;;27.63;25.52;;;;;;;13.03;100.00;100133.53;5063965;28;20485;-76
2023/11/06 01:01:44;;;;;;;29.10;26.90;;;;;;;13.21;100.00;100118.41;5063484;28;20067;-76
2023/11/06 01:04:12;;;;;;;27.55;25.55;;;;;;;13.20;100.00;100122.13;5068648;28;20044;-76
2023/11/06 01:06:52;;;;;;;27.85;25.85;;;;;;;13.18;100.00;100138.34;5075717;28;20043;-76
2023/11/06 01:09:19;;;;;;;27.40;25.40;;;;;;;13.14;100.00;100136.41;5064245;28;20053;-76
2023/11/06 01:11:48;;;;;;;27.40;25.40;;;;;;;13.15;100.00;100130.81;5067756;28;20072;-76
2023/11/06 01:14:15;;;;;;;30.52;28.42;;;;;;;13.04;100.00;100143.16;5063312;28;20060;-75
2023/11/06 01:16:42;;;;;;;29.95;27.75;;;;;;;13.33;100.00;100153.06;5061975;28;20052;-75
2023/11/06 01:19:13;;;;;;;29.65;27.55;;;;;;;13.10;100.00;100152.06;5068490;28;20415;-75
2023/11/06 01:21:51;;;;;;;27.50;25.50;;;;;;;13.16;100.00;100147.63;5068757;28;20060;-76
2023/11/06 01:24:27;;;;;;;29.50;27.38;;;;;;;13.02;100.00;100150.56;5057726;28;20135;-77
2023/11/06 01:26:59;;;;;;;29.50;27.40;;;;;;;13.05;100.00;100166.09;5063629;28;20130;-76
2023/11/06 01:29:28;;;;;;;27.02;24.92;;;;;;;13.08;100.00;100167.47;5066411;28;20048;-76
2023/11/06 01:31:55;;;;;;;28.90;26.70;;;;;;;13.20;100.00;100164.78;5065942;28;20041;-75
2023/11/06 01:34:24;;;;;;;29.45;27.20;;;;;;;13.07;100.00;100160.50;5069317;28;20056;-76
2023/11/06 01:36:50;;;;;;;23.75;21.85;;;;;;;13.05;100.00;100179.41;5066300;28;20071;-75
2023/11/06 01:39:18;;;;;;;23.90;22.00;;;;;;;13.44;100.00;100166.38;5064215;28;20048;-76
2023/11/06 01:41:46;;;;;;;26.35;24.35;;;;;;;13.29;100.00;100153.53;5062157;28;20041;-77
2023/11/06 01:44:13;;;;;;;27.35;25.30;;;;;;;13.17;100.00;100167.94;5067090;28;20051;-76
2023/11/06 01:46:41;;;;;;;27.05;25.05;;;;;;;13.03;100.00;100170.03;5060847;28;20128;-76
2023/11/06 01:49:09;;;;;;;25.20;23.30;;;;;;;13.14;100.00;100168.41;5067221;28;20040;-76
2023/11/06 01:51:40;;;;;;;29.40;27.30;;;;;;;12.99;100.00;100169.69;5067607;28;20439;-76
2023/11/06 01:54:09;;;;;;;27.05;25.05;;;;;;;12.97;100.00;100168.31;5068015;28;20476;-77
2023/11/06 01:56:38;;;;;;;27.30;25.27;;;;;;;13.03;100.00;100173.50;5063698;28;20514;-77
2023/11/06 01:59:05;;;;;;;25.90;24.00;;;;;;;12.98;100.00;100177.91;5068301;28;20128;-75
2023/11/06 02:01:36;;;;;;;24.60;22.80;;;;;;;13.25;100.00;100172.91;5068601;28;20048;-76
2023/11/06 02:04:05;;;;;;;24.13;22.33;;;;;;;12.88;100.00;100172.38;5067038;28;20433;-76
2023/11/06 02:06:43;;;;;;;27.15;25.13;;;;;;;12.99;100.00;100176.88;5068378;28;20052;-75
2023/11/06 02:09:12;;;;;;;26.48;24.48;;;;;;;13.02;100.00;100185.22;5067013;28;20702;-75
2023/11/06 02:11:39;;;;;;;28.85;26.65;;;;;;;13.00;100.00;100181.16;5065841;28;20045;-74
2023/11/06 02:14:06;;;;;;;30.02;27.83;;;;;;;13.25;100.00;100178.22;5069537;28;20048;-76
2023/11/06 02:16:34;;;;;;;28.63;26.42;;;;;;;12.96;100.00;100188.81;5069160;28;20433;-75
2023/11/06 02:19:10;;;;;;;27.73;25.73;;;;;;;12.90;100.00;100186.28;5065521;28;20052;-75
2023/11/06 02:21:37;;;;;;;28.30;26.20;;;;;;;12.95;100.00;100189.88;5064248;28;20045;-76
2023/11/06 02:24:06;;;;;;;26.48;24.48;;;;;;;13.00;100.00;100187.31;5068189;28;20826;-76
2023/11/06 02:26:54;;;;;;;28.40;26.20;;;;;;;13.01;100.00;100191.59;5066033;28;20049;-74
2023/11/06 02:29:21;;;;;;;27.63;25.45;;;;;;;12.87;100.00;100194.75;5067859;28;20498;-74
2023/11/06 02:31:49;;;;;;;28.35;26.25;;;;;;;12.72;100.00;100181.91;5065467;28;20048;-74
2023/11/06 02:34:15;;;;;;;27.73;25.63;;;;;;;12.98;100.00;100194.75;5063046;28;20062;-73
2023/11/06 02:36:43;;;;;;;25.13;23.23;;;;;;;12.98;100.00;100185.91;5065776;28;20052;-74
2023/11/06 02:39:11;;;;;;;26.60;24.50;;;;;;;13.06;100.00;100190.91;5068155;28;20052;-72
2023/11/06 02:41:38;;;;;;;30.27;27.98;;;;;;;12.92;100.00;100202.84;5061838;28;20437;-75
2023/11/06 02:44:05;;;;;;;25.73;23.92;;;;;;;13.01;100.00;100204.09;5070638;28;20064;-76
2023/11/06 02:46:50;;;;;;;24.17;22.38;;;;;;;12.94;100.00;100209.56;5066480;28;20057;-75
2023/11/06 02:49:20;;;;;;;22.52;20.83;;;;;;;12.85;100.00;100208.31;5060403;28;20433;-75
2023/11/06 02:51:47;;;;;;;24.50;22.70;;;;;;;12.83;100.00;100208.56;5068752;28;20040;-74
2023/11/06 02:54:15;;;;;;;27.83;25.85;;;;;;;12.79;100.00;100209.22;5062384;28;20045;-74
2023/11/06 02:56:43;;;;;;;23.65;22.05;;;;;;;12.80;100.00;100219.69;5069793;28;20049;-75
2023/11/06 02:59:09;;;;;;;24.60;22.80;;;;;;;12.69;100.00;100222.34;5061127;28;20156;-74
2023/11/06 03:01:37;;;;;;;27.42;25.52;;;;;;;12.75;100.00;100234.72;5069541;28;20443;-74
2023/11/06 03:04:04;;;;;;;26.25;24.45;;;;;;;12.69;100.00;100230.31;5066366;28;20060;-74
2023/11/06 03:06:31;;;;;;;25.42;23.63;;;;;;;13.16;100.00;100239.13;5065138;28;20084;-74
2023/11/06 03:08:59;;;;;;;26.13;24.42;;;;;;;12.77;100.00;100236.13;5071497;28;20051;-75
2023/11/06 03:11:27;;;;;;;27.77;26.08;;;;;;;12.73;100.00;100244.81;5068738;28;20413;-75
2023/11/06 03:13:54;;;;;;;27.10;25.40;;;;;;;12.96;100.00;100244.81;5070988;28;20055;-74
2023/11/06 03:16:21;;;;;;;27.55;26.05;;;;;;;12.87;100.00;100238.22;5068665;28;20048;-74
2023/11/06 03:18:48;;;;;;;28.77;27.08;;;;;;;12.88;100.00;100242.47;5070235;28;20044;-75
2023/11/06 03:21:22;;;;;;;25.90;24.20;;;;;;;12.92;100.00;100248.16;5068399;28;20939;-75
2023/11/06 03:24:09;;;;;;;27.73;26.02;;;;;;;12.99;100.00;100248.88;5067941;28;20056;-74
2023/11/06 03:26:38;;;;;;;28.33;26.42;;;;;;;13.09;100.00;100250.94;5065934;28;20433;-73
2023/11/06 03:29:20;;;;;;;26.77;25.08;;;;;;;12.95;100.00;100253.03;5072512;28;20606;-73
2023/11/06 03:31:58;;;;;;;24.77;23.00;;;;;;;13.08;100.00;100255.47;5075232;28;20505;-75
2023/11/06 03:34:25;;;;;;;26.33;24.48;;;;;;;13.01;100.00;100255.59;5077116;28;20303;-74
2023/11/06 03:36:52;;;;;;;25.40;23.67;;;;;;;12.93;100.00;100265.78;5069605;28;20305;-75
2023/11/06 03:39:22;;;;;;;24.63;23.10;;;;;;;12.98;100.00;100273.88;5069488;28;20441;-75
2023/11/06 03:41:50;;;;;;;26.75;24.95;;;;;;;12.95;100.00;100277.00;5071584;28;20048;-76
2023/11/06 03:44:17;;;;;;;23.55;21.95;;;;;;;13.04;100.00;100270.28;5070978;28;20053;-76
2023/11/06 03:46:44;;;;;;;22.35;20.85;;;;;;;12.97;100.00;100267.75;5067875;28;20045;-76
2023/11/06 03:49:11;;;;;;;25.42;23.63;;;;;;;12.88;100.00;100276.31;5069566;28;20135;-76
2023/11/06 03:51:38;;;;;;;26.05;24.25;;;;;;;12.98;100.00;100272.06;5071119;28;20037;-76
2023/11/06 03:54:05;;;;;;;27.33;25.60;;;;;;;13.02;100.00;100280.38;5068787;28;20160;-75
2023/11/06 03:56:33;;;;;;;25.80;24.10;;;;;;;12.95;100.00;100277.84;5069992;28;20079;-75
2023/11/06 03:59:05;;;;;;;26.70;25.00;;;;;;;12.82;100.00;100276.19;5068384;28;20517;-76
2023/11/06 04:01:34;;;;;;;25.38;23.67;;;;;;;12.75;100.00;100285.38;5062773;28;20044;-75
2023/11/06 04:04:02;;;;;;;24.13;22.52;;;;;;;12.66;100.00;100284.88;5068379;28;20048;-75
2023/11/06 04:06:30;;;;;;;25.38;23.88;;;;;;;12.86;100.00;100292.56;5069743;28;20143;-75
2023/11/06 04:08:57;;;;;;;29.73;27.83;;;;;;;12.95;100.00;100291.19;5069167;28;20432;-75
2023/11/06 04:11:25;;;;;;;23.98;22.27;;;;;;;12.91;100.00;100286.53;5068822;28;20045;-76
2023/11/06 04:13:53;;;;;;;28.40;26.52;;;;;;;12.86;100.00;100286.41;5069334;28;20440;-75
2023/11/06 04:16:22;;;;;;;25.67;23.98;;;;;;;12.74;100.00;100295.22;5070221;28;20052;-75
2023/11/06 04:18:57;;;;;;;24.73;23.02;;;;;;;12.65;100.00;100295.75;5066658;28;20537;-76
2023/11/06 04:21:40;;;;;;;25.60;23.80;;;;;;;12.52;100.00;100300.25;5068894;28;20064;-74
2023/11/06 04:24:08;;;;;;;23.90;22.30;;;;;;;12.78;100.00;100317.69;5064488;28;20402;-75
2023/11/06 04:26:35;;;;;;;23.55;21.95;;;;;;;12.79;100.00;100323.81;5066742;28;20044;-75
2023/11/06 04:29:09;;;;;;;25.27;23.55;;;;;;;13.03;100.00;100332.66;5069511;28;20049;-75
2023/11/06 04:31:37;;;;;;;26.88;25.08;;;;;;;13.04;100.00;100335.09;5066074;28;20051;-76
2023/11/06 04:34:04;;;;;;;26.90;25.10;;;;;;;13.21;100.00;100331.72;5062752;28;20044;-75
2023/11/06 04:36:32;;;;;;;25.00;23.30;;;;;;;13.58;100.00;100332.28;5070078;28;20052;-75
2023/11/06 04:38:59;;;;;;;27.13;25.58;;;;;;;13.20;100.00;100343.44;5060488;28;20048;-76
2023/11/06 04:41:26;;;;;;;28.45;26.85;;;;;;;13.33;100.00;100343.25;5063136;28;20417;-74
2023/11/06 04:43:52;;;;;;;23.67;22.17;;;;;;;13.22;100.00;100350.19;5066956;28;20494;-74
2023/11/06 04:46:19;;;;;;;27.23;25.58;;;;;;;13.25;100.00;100352.41;5067091;28;20041;-74
2023/11/06 04:48:47;;;;;;;23.67;22.27;;;;;;;13.42;100.00;100357.84;5068147;28;20438;-75
2023/11/06 04:51:16;;;;;;;21.67;20.27;;;;;;;13.33;100.00;100353.91;5068245;28;20052;-74
2023/11/06 04:53:43;;;;;;;19.50;18.30;;;;;;;13.43;100.00;100362.13;5063208;28;20073;-76
2023/11/06 04:56:10;;;;;;;19.52;18.23;;;;;;;13.38;100.00;100361.22;5068489;28;20044;-74
2023/11/06 04:58:37;;;;;;;20.42;19.13;;;;;;;13.56;100.00;100368.28;5065449;28;20059;-75
2023/11/06 05:01:06;;;;;;;26.90;25.20;;;;;;;13.50;100.00;100370.03;5067494;28;20048;-74
2023/11/06 05:03:33;;;;;;;19.35;18.05;;;;;;;13.54;100.00;100370.38;5067439;28;20044;-74
2023/11/06 05:06:05;;;;;;;20.27;18.83;;;;;;;13.44;100.00;100384.31;5068680;28;20048;-75
2023/11/06 05:08:34;;;;;;;20.47;18.97;;;;;;;13.60;100.00;100399.59;5068999;28;20044;-76
2023/11/06 05:11:05;;;;;;;20.75;19.25;;;;;;;13.54;100.00;100403.19;5069005;28;20298;-74
2023/11/06 05:13:47;;;;;;;20.10;18.70;;;;;;;13.91;100.00;100417.06;5067854;28;20114;-74
2023/11/06 05:16:22;;;;;;;21.65;20.17;;;;;;;13.46;100.00;100422.22;5064058;28;20502;-75
2023/11/06 05:18:49;;;;;;;20.77;19.48;;;;;;;13.57;100.00;100432.06;5067597;28;20437;-75
2023/11/06 05:21:23;;;;;;;18.77;17.48;;;;;;;13.51;100.00;100433.00;5066730;28;20048;-75
2023/11/06 05:23:54;;;;;;;19.98;18.58;;;;;;;13.56;100.00;100440.31;5068360;28;20040;-74
2023/11/06 05:26:29;;;;;;;18.48;17.27;;;;;;;13.57;100.00;100456.09;5068699;28;20516;-74
2023/11/06 05:29:00;;;;;;;18.60;17.40;;;;;;;13.69;100.00;100458.75;5068026;28;20055;-74
2023/11/06 05:31:33;;;;;;;18.75;17.55;;;;;;;13.51;100.00;100460.50;5067157;28;20089;-75
2023/11/06 05:34:00;;;;;;;18.80;17.70;;;;;;;13.25;100.00;100461.75;5065900;28;20513;-73
2023/11/06 05:36:44;;;;;;;19.35;18.15;;;;;;;13.28;100.00;100468.47;5068882;28;20048;-75
2023/11/06 05:39:11;;;;;;;19.92;18.63;;;;;;;13.02;100.00;100486.47;5062913;28;20079;-75
2023/11/06 05:41:38;;;;;;;21.45;19.95;;;;;;;13.14;100.00;100488.38;5062529;28;20048;-74
2023/11/06 05:44:05;;;;;;;20.45;19.15;;;;;;;13.70;100.00;100487.06;5068186;28;20049;-73
2023/11/06 05:46:33;;;;;;;19.88;18.58;;;;;;;13.79;100.00;100493.69;5051286;28;20049;-75
2023/11/06 05:49:11;;;;;;;19.75;18.55;;;;;;;14.09;100.00;100503.41;5058334;28;20056;-74
2023/11/06 05:51:39;;;;;;;19.75;18.65;;;;;;;14.28;100.00;100520.09;5067733;28;20045;-74
2023/11/06 05:54:08;;;;;;;19.65;18.25;;;;;;;14.52;100.00;100527.06;5059884;28;20048;-74
2023/11/06 05:56:35;;;;;;;19.80;18.40;;;;;;;14.73;100.00;100525.59;5066731;28;20052;-74
2023/11/06 05:59:03;;;;;;;20.25;18.85;;;;;;;15.06;100.00;100538.25;5067155;28;20048;-74
2023/11/06 06:01:30;;;;;;;20.60;19.20;;;;;;;15.04;100.00;100540.38;5069105;28;20049;-75
2023/11/06 06:03:57;;;;;;;19.70;18.40;;;;;;;15.19;100.00;100536.34;5066232;28;20418;-74
2023/11/06 06:06:25;;;;;;;19.65;18.55;;;;;;;15.21;100.00;100539.59;5067085;28;20055;-75
2023/11/06 06:08:51;;;;;;;20.40;19.20;;;;;;;15.20;100.00;100541.47;5064592;28;20106;-74
2023/11/06 06:11:20;;;;;;;20.98;19.58;;;;;;;15.98;100.00;100544.34;5065043;28;20053;-74
2023/11/06 06:13:47;;;;;;;21.17;19.88;;;;;;;15.92;100.00;100548.81;5067762;28;20067;-76
2023/11/06 06:16:14;;;;;;;20.02;18.83;;;;;;;16.03;100.00;100545.22;5064182;28;20041;-74
2023/11/06 06:18:41;;;;;;;19.67;18.48;;;;;;;16.48;100.00;100554.13;5079288;28;20044;-75
2023/11/06 06:21:08;;;;;;;20.40;19.10;;;;;;;16.37;100.00;100561.25;5071170;28;20325;-74
2023/11/06 06:23:35;;;;;;;20.55;19.25;;;;;;;15.80;100.00;100566.84;5071571;28;20068;-75
2023/11/06 06:26:03;;;;;;;20.17;18.88;;;;;;;16.74;100.00;100563.31;5069929;28;20055;-74
2023/11/06 06:28:31;;;;;;;20.48;19.27;;;;;;;16.61;100.00;100567.19;5071700;28;20049;-75
2023/11/06 06:31:01;;;;;;;20.27;18.88;;;;;;;17.42;100.00;100573.69;5065726;28;20512;-73
2023/11/06 06:33:28;;;;;;;21.83;20.42;;;;;;;16.45;100.00;100581.44;5071593;28;20094;-74
2023/11/06 06:35:55;;;;;;;20.73;19.52;;;;;;;17.07;100.00;100588.41;5072497;28;20044;-75
2023/11/06 06:38:22;;;;;;;21.60;20.30;;;;;;;17.38;100.00;100584.94;5070996;28;20128;-76
2023/11/06 06:40:52;;;;;;;19.90;18.80;;;;;;;17.84;100.00;100582.66;5072182;28;20090;-75
2023/11/06 06:43:19;;;;;;;18.85;17.75;;;;;;;17.79;100.00;100593.41;5063996;28;20045;-75
2023/11/06 06:45:47;;;;;;;19.73;18.55;;;;;;;17.78;100.00;100602.50;5069099;28;20501;-75
2023/11/06 06:48:15;;;;;;;22.33;21.13;;;;;;;16.72;100.00;100605.66;5066503;28;20131;-76
2023/11/06 06:50:42;;;;;;;22.08;20.77;;;;;;;16.87;100.00;100608.53;5069725;28;20041;-76
2023/11/06 06:53:09;;;;;;;21.13;19.83;;;;;;;17.75;100.00;100615.59;5065314;28;20106;-76
2023/11/06 06:55:48;;;;;;;22.25;20.85;;;;;;;18.47;100.00;100611.56;5062192;28;20071;-77
2023/11/06 06:58:16;;;;;;;23.00;21.60;;;;;;;17.94;100.00;100618.75;5064867;28;20135;-76
2023/11/06 07:00:43;;;;;;;23.52;22.13;;;;;;;17.62;100.00;100624.91;5072470;28;20437;-76
2023/11/06 07:03:12;;;;;;;22.80;21.50;;;;;;;18.28;100.00;100638.09;5070330;28;20055;-76
2023/11/06 07:05:39;;;;;;;22.63;21.33;;;;;;;18.31;100.00;100641.06;5066470;28;20048;-76
2023/11/06 07:08:06;;;;;;;24.65;23.35;;;;;;;18.41;100.00;100644.88;5067289;28;20186;-76
2023/11/06 07:10:33;;;;;;;22.90;21.60;;;;;;;18.07;100.00;100647.88;5067850;28;20441;-76
2023/11/06 07:13:00;;;;;;;23.08;21.77;;;;;;;18.39;100.00;100649.69;5068527;28;20436;-76
2023/11/06 07:15:28;;;;;;;23.10;21.70;;;;;;;18.08;100.00;100646.81;5072630;28;20055;-76
2023/11/06 07:17:55;;;;;;;20.73;19.52;;;;;;;18.61;100.00;100661.16;5065903;28;20475;-76
2023/11/06 07:20:23;;;;;;;23.58;22.17;;;;;;;18.26;100.00;100659.84;5069945;28;20048;-76
2023/11/06 07:22:57;;;;;;;24.15;22.65;;;;;;;17.99;100.00;100661.78;5069765;28;20551;-76
2023/11/06 07:25:24;;;;;;;23.50;22.10;;;;;;;19.17;100.00;100652.53;5070601;28;20053;-76
2023/11/06 07:27:51;;;;;;;22.48;21.08;;;;;;;19.72;100.00;100663.72;5071534;28;20056;-75
2023/11/06 07:30:18;;;;;;;21.60;20.33;;;;;;;20.72;100.00;100663.09;5074160;28;20055;-75
2023/11/06 07:32:45;;;;;;;22.45;21.15;;;;;;;19.17;100.00;100663.28;5070393;28;20048;-75
2023/11/06 07:35:23;;;;;;;23.33;22.10;;;;;;;18.92;100.00;100664.00;5067819;28;20052;-75
2023/11/06 07:37:50;;;;;;;24.60;23.20;;;;;;;18.34;100.00;100674.69;5063285;28;20127;-77
2023/11/06 07:40:18;;;;;;;24.30;22.70;;;;;;;19.20;100.00;100673.53;5070157;28;20437;-75
2023/11/06 07:42:45;;;;;;;26.25;24.65;;;;;;;19.15;100.00;100682.41;5058432;28;20076;-77
2023/11/06 07:45:12;;;;;;;26.77;25.27;;;;;;;18.67;100.00;100678.09;5067040;28;20441;-76
2023/11/06 07:47:47;;;;;;;25.35;23.95;;;;;;;18.93;100.00;100677.19;5070246;28;20453;-76
2023/11/06 07:50:15;;;;;;;24.60;23.10;;;;;;;18.19;100.00;100678.06;5067097;28;20076;-75
2023/11/06 07:52:43;;;;;;;25.17;23.67;;;;;;;18.12;100.00;100690.91;5059667;28;20049;-76
2023/11/06 07:55:10;;;;;;;26.05;24.52;;;;;;;18.95;100.00;100675.06;5056475;28;20060;-76
2023/11/06 07:57:37;;;;;;;25.27;23.77;;;;;;;18.20;100.00;100684.25;5068158;28;20048;-76
2023/11/06 08:00:05;;;;;;;25.20;23.70;;;;;;;19.19;100.00;100683.50;5071418;28;20429;-76
2023/11/06 08:02:34;;;;;;;24.30;22.90;;;;;;;18.62;100.00;100678.09;5071218;28;20075;-76
2023/11/06 08:05:02;;;;;;;24.23;22.83;;;;;;;19.92;100.00;100679.91;5066495;28;20536;-78
2023/11/06 08:07:29;;;;;;;27.13;25.40;;;;;;;19.29;100.00;100690.78;5066632;28;20090;-76
2023/11/06 08:09:58;;;;;;;30.42;28.52;;;;;;;19.06;100.00;100691.25;5068467;28;20045;-76
2023/11/06 08:12:25;;;;;;;31.23;29.13;;;;;;;19.86;100.00;100699.84;5061069;28;20045;-76
2023/11/06 08:14:52;;;;;;;30.05;28.05;;;;;;;19.94;100.00;100699.31;5070081;28;20074;-76
2023/11/06 08:17:19;;;;;;;31.55;29.45;;;;;;;19.56;100.00;100704.06;5069146;28;20049;-76
2023/11/06 08:19:47;;;;;;;29.90;28.00;;;;;;;19.68;100.00;100701.16;5069442;28;20066;-76
2023/11/06 08:22:14;;;;;;;30.50;28.55;;;;;;;18.77;100.00;100703.22;5066643;28;20154;-77
2023/11/06 08:24:41;;;;;;;29.52;27.52;;;;;;;18.93;100.00;100706.00;5065016;28;20430;-75
2023/11/06 08:27:16;;;;;;;26.85;25.05;;;;;;;18.82;100.00;100709.69;5067449;28;20125;-76
2023/11/06 08:29:43;;;;;;;33.20;31.10;;;;;;;20.26;100.00;100709.81;5067930;28;20036;-76
2023/11/06 08:32:14;;;;;;;31.42;29.38;;;;;;;21.59;100.00;100705.94;5067151;28;20065;-74
2023/11/06 08:34:52;;;;;;;33.60;31.50;;;;;;;19.98;100.00;100726.53;5066428;28;20041;-76
2023/11/06 08:37:20;;;;;;;34.05;31.85;;;;;;;19.54;100.00;100735.03;5069835;28;20044;-77
2023/11/06 08:39:49;;;;;;;32.65;30.55;;;;;;;19.37;100.00;100732.56;5068762;28;20060;-78
2023/11/06 08:42:18;;;;;;;30.90;28.90;;;;;;;20.11;100.00;100739.47;5057506;28;20052;-76
2023/11/06 08:44:45;;;;;;;34.53;32.33;;;;;;;20.21;100.00;100728.72;5075873;28;20040;-75
2023/11/06 08:47:15;;;;;;;33.20;31.10;;;;;;;19.48;100.00;100738.78;5073755;28;20506;-76
2023/11/06 08:49:42;;;;;;;30.23;28.23;;;;;;;19.68;100.00;100731.59;5068821;28;20079;-76
2023/11/06 08:52:09;;;;;;;30.58;28.58;;;;;;;19.76;100.00;100734.84;5064610;28;20045;-75
2023/11/06 08:54:37;;;;;;;31.40;29.42;;;;;;;20.99;100.00;100735.63;5062697;28;20497;-78
2023/11/06 08:57:05;;;;;;;31.42;29.52;;;;;;;20.79;100.00;100734.63;5069476;28;20048;-77
2023/11/06 08:59:33;;;;;;;32.63;30.55;;;;;;;22.05;100.00;100729.97;5067495;28;20044;-76
2023/11/06 09:02:02;;;;;;;28.23;26.52;;;;;;;20.53;100.00;100736.53;5074334;28;20075;-75
2023/11/06 09:04:41;;;;;;;33.03;31.02;;;;;;;20.53;100.00;100736.53;5064638;28;20060;-78
2023/11/06 09:07:15;;;;;;;34.58;32.38;;;;;;;21.27;100.00;100736.88;5064176;28;20078;-77
2023/11/06 09:09:43;;;;;;;33.53;31.33;;;;;;;22.05;100.00;100735.38;5060884;28;20513;-75
2023/11/06 09:12:10;;;;;;;32.40;30.23;;;;;;;20.40;100.00;100736.25;5059230;28;20056;-75
2023/11/06 09:14:45;;;;;;;25.27;23.77;;;;;;;21.52;100.00;100735.19;5056532;28;20056;-76
2023/11/06 09:17:12;;;;;;;26.10;24.60;;;;;;;21.01;100.00;100731.56;5068872;28;20814;-74
2023/11/06 09:19:39;;;;;;;25.70;24.10;;;;;;;20.95;100.00;100739.97;5069450;28;20048;-74
2023/11/06 09:22:06;;;;;;;23.98;22.48;;;;;;;21.99;100.00;100726.47;5064810;28;20135;-74
2023/11/06 09:24:33;;;;;;;28.25;26.65;;;;;;;22.07;100.00;100730.50;5068001;28;20049;-75
2023/11/06 09:27:15;;;;;;;29.90;27.90;;;;;;;23.23;100.00;100726.94;5068384;28;20052;-75
2023/11/06 09:29:42;;;;;;;30.73;28.85;;;;;;;21.04;100.00;100736.44;5068779;28;20048;-75
2023/11/06 09:32:23;;;;;;;29.38;27.48;;;;;;;23.15;100.00;100741.13;5061520;28;20044;-75
2023/11/06 09:35:00;;;;;;;31.00;29.10;;;;;;;21.40;100.00;100740.91;5064393;28;20505;-73
2023/11/06 09:37:28;;;;;;;32.90;30.90;;;;;;;23.47;100.00;100738.53;5064127;28;20048;-75
2023/11/06 09:39:56;;;;;;;28.38;26.58;;;;;;;22.15;100.00;100743.44;5076354;28;20051;-74
2023/11/06 09:42:25;;;;;;;27.73;25.92;;;;;;;22.14;100.00;100733.69;5065423;28;20044;-74
2023/11/06 09:44:52;;;;;;;24.98;23.27;;;;;;;22.11;100.00;100747.75;5065692;28;20548;-74
2023/11/06 09:47:19;;;;;;;24.52;22.92;;;;;;;23.21;100.00;100734.56;5070813;28;20059;-73
2023/11/06 09:50:13;;;;;;;27.38;25.67;;;;;;;21.69;100.00;100751.81;5069610;28;20052;-74
2023/11/06 09:52:41;;;;;;;21.60;20.00;;;;;;;22.42;100.00;100748.34;5066861;28;20596;-74
2023/11/06 09:55:09;;;;;;;24.80;23.00;;;;;;;21.36;100.00;100739.84;5072120;28;20079;-74
2023/11/06 09:57:37;;;;;;;24.05;22.35;;;;;;;21.26;100.00;100748.75;5071827;28;20123;-77
2023/11/06 10:00:08;;;;;;;23.25;21.55;;;;;;;21.90;100.00;100753.31;5072622;28;20048;-76
2023/11/06 10:02:35;;;;;;;24.98;23.23;;;;;;;22.34;100.00;100741.66;5071391;28;20145;-76
2023/11/06 10:05:20;;;;;;;22.02;20.63;;;;;;;22.81;100.00;100747.44;5073673;28;20041;-77
2023/11/06 10:07:51;;;;;;;21.63;20.23;;;;;;;22.84;100.00;100753.09;5069782;28;21300;-74
2023/11/06 10:10:20;;;;;;;21.23;19.83;;;;;;;22.25;100.00;100753.38;5068687;28;20044;-73
2023/11/06 10:13:01;;;;;;;21.67;20.17;;;;;;;24.05;100.00;100748.31;5070290;28;20052;-77
2023/11/06 10:15:28;;;;;;;22.05;20.55;;;;;;;23.71;100.00;100760.22;5064584;28;20094;-78
2023/11/06 10:17:57;;;;;;;23.00;21.40;;;;;;;23.59;100.00;100756.28;5070748;28;20426;-75
2023/11/06 10:20:29;;;;;;;21.95;20.45;;;;;;;24.65;100.00;100745.69;5071313;28;20044;-75
2023/11/06 10:23:04;;;;;;;21.80;20.30;;;;;;;23.02;100.00;100756.97;5063519;28;20102;-78
2023/11/06 10:25:32;;;;;;;21.27;19.77;;;;;;;23.55;100.00;100743.31;5069641;28;20148;-75
2023/11/06 10:27:59;;;;;;;23.67;21.88;;;;;;;23.26;100.00;100745.31;5068547;28;20092;-79
2023/11/06 10:30:46;;;;;;;24.85;23.05;;;;;;;21.58;100.00;100756.50;5072807;28;20045;-75
2023/11/06 10:33:14;;;;;;;21.08;19.48;;;;;;;22.62;100.00;100753.56;5067688;28;20044;-77
2023/11/06 10:35:43;;;;;;;22.50;21.00;;;;;;;23.06;100.00;100763.44;5068629;28;20644;-76
2023/11/06 10:38:28;;;;;;;23.20;21.70;;;;;;;22.44;100.00;100770.53;5062907;28;20044;-77
2023/11/06 10:40:55;;;;;;;26.73;24.92;;;;;;;23.08;100.00;100758.53;5069112;28;20098;-75
2023/11/06 10:43:24;;;;;;;25.45;23.55;;;;;;;22.23;100.00;100760.97;5063232;28;20048;-74
2023/11/06 10:45:51;;;;;;;23.17;21.38;;;;;;;22.51;100.00;100765.59;5068859;28;20052;-75
2023/11/06 10:48:31;;;;;;;24.98;23.00;;;;;;;24.70;100.00;100763.00;5069731;28;20068;-77
2023/11/06 10:51:02;;;;;;;24.20;22.40;;;;;;;23.35;100.00;100767.16;5067927;28;20051;-74
2023/11/06 10:53:31;;;;;;;26.10;24.30;;;;;;;22.05;100.00;100765.91;5065230;28;20479;-76
2023/11/06 10:56:03;;;;;;;23.45;21.75;;;;;;;22.89;100.00;100773.09;5072310;28;20056;-74
2023/11/06 10:58:44;;;;;;;25.90;24.00;;;;;;;23.41;100.00;100766.00;5067721;28;20177;-77
2023/11/06 11:01:12;;;;;;;21.10;19.50;;;;;;;23.28;100.00;100771.03;5071431;28;20050;-74
2023/11/06 11:03:41;;;;;;;21.33;19.83;;;;;;;22.07;100.00;100779.19;5070322;28;20048;-74
2023/11/06 11:06:11;;;;;;;23.20;21.50;;;;;;;25.21;100.00;100773.75;5065733;28;20059;-79
2023/11/06 11:08:41;;;;;;;22.38;20.77;;;;;;;22.60;100.00;100768.47;5070633;28;20056;-76
2023/11/06 11:11:12;;;;;;;22.00;20.50;;;;;;;22.82;100.00;100779.66;5072862;28;20060;-75
2023/11/06 11:13:43;;;;;;;19.63;18.13;;;;;;;22.89;100.00;100768.47;5063640;28;20102;-75